sensor_id;sensor_type;location;lat;lon;timestamp;temperature;humidity
43185;DHT22;28803;52.308;19.096;2023-04-24T00:02:04;12.40;8.20
43185;DHT22;28803;52.308;19.096;2023-04-24T00:04:34;12.40;16.80
43185;DHT22;28803;52.308;19.096;2023-04-24T00:07:01;12.40;1.00
43185;DHT22;28803;52.308;19.096;2023-04-24T00:09:28;12.40;1.00
43185;DHT22;28803;52.308;19.096;2023-04-24T00:11:55;12.40;1.00
43185;DHT22;28803;52.308;19.096;2023-04-24T00:14:23;12.40;1.00
43185;DHT22;28803;52.308;19.096;2023-04-24T00:16:50;12.30;1.00
43185;DHT22;28803;52.308;19.096;2023-04-24T00:19:17;12.30;1.00
43185;DHT22;28803;52.308;19.096;2023-04-24T00:21:48;12.30;1.00
43185;DHT22;28803;52.308;19.096;2023-04-24T00:24:18;12.30;1.00
43185;DHT22;28803;52.308;19.096;2023-04-24T00:26:46;12.30;9.90
43185;DHT22;28803;52.308;19.096;2023-04-24T00:29:13;12.30;91.80
43185;DHT22;28803;52.308;19.096;2023-04-24T00:31:40;12.20;99.90
43185;DHT22;28803;52.308;19.096;2023-04-24T00:34:08;12.20;99.90
43185;DHT22;28803;52.308;19.096;2023-04-24T00:36:35;12.10;99.90
43185;DHT22;28803;52.308;19.096;2023-04-24T00:39:02;12.20;59.80
43185;DHT22;28803;52.308;19.096;2023-04-24T00:41:30;12.20;1.00
43185;DHT22;28803;52.308;19.096;2023-04-24T00:43:57;12.20;99.90
43185;DHT22;28803;52.308;19.096;2023-04-24T00:46:24;12.20;1.00
43185;DHT22;28803;52.308;19.096;2023-04-24T00:48:52;12.20;99.90
43185;DHT22;28803;52.308;19.096;2023-04-24T00:51:19;12.20;99.90
43185;DHT22;28803;52.308;19.096;2023-04-24T00:53:47;12.30;1.00
43185;DHT22;28803;52.308;19.096;2023-04-24T00:56:14;12.30;46.20
43185;DHT22;28803;52.308;19.096;2023-04-24T00:58:42;12.30;1.00
43185;DHT22;28803;52.308;19.096;2023-04-24T01:01:10;12.30;1.00
43185;DHT22;28803;52.308;19.096;2023-04-24T01:03:38;12.30;30.10
43185;DHT22;28803;52.308;19.096;2023-04-24T01:06:07;12.20;99.90
43185;DHT22;28803;52.308;19.096;2023-04-24T01:08:36;12.20;99.90
43185;DHT22;28803;52.308;19.096;2023-04-24T01:11:04;12.10;99.90
43185;DHT22;28803;52.308;19.096;2023-04-24T01:13:32;12.10;99.90
43185;DHT22;28803;52.308;19.096;2023-04-24T01:16:00;12.10;1.00
43185;DHT22;28803;52.308;19.096;2023-04-24T01:18:28;12.00;99.90
43185;DHT22;28803;52.308;19.096;2023-04-24T01:20:59;12.00;99.90
43185;DHT22;28803;52.308;19.096;2023-04-24T01:23:30;12.00;99.90
43185;DHT22;28803;52.308;19.096;2023-04-24T01:25:57;12.00;99.90
43185;DHT22;28803;52.308;19.096;2023-04-24T01:28:25;12.00;99.90
43185;DHT22;28803;52.308;19.096;2023-04-24T01:30:53;12.00;99.90
43185;DHT22;28803;52.308;19.096;2023-04-24T01:33:21;12.00;99.90
43185;DHT22;28803;52.308;19.096;2023-04-24T01:35:49;12.00;99.90
43185;DHT22;28803;52.308;19.096;2023-04-24T01:38:17;12.00;99.90
43185;DHT22;28803;52.308;19.096;2023-04-24T01:40:44;11.90;99.90
43185;DHT22;28803;52.308;19.096;2023-04-24T01:43:12;11.90;99.90
43185;DHT22;28803;52.308;19.096;2023-04-24T01:45:39;11.90;99.90
43185;DHT22;28803;52.308;19.096;2023-04-24T01:48:07;11.80;99.90
43185;DHT22;28803;52.308;19.096;2023-04-24T01:50:34;11.80;99.90
43185;DHT22;28803;52.308;19.096;2023-04-24T01:53:01;11.80;99.90
43185;DHT22;28803;52.308;19.096;2023-04-24T01:55:28;11.80;99.90
43185;DHT22;28803;52.308;19.096;2023-04-24T01:57:56;11.90;99.90
43185;DHT22;28803;52.308;19.096;2023-04-24T02:00:24;11.80;99.90
43185;DHT22;28803;52.308;19.096;2023-04-24T02:02:52;11.80;99.90
43185;DHT22;28803;52.308;19.096;2023-04-24T02:05:19;11.90;1.00
43185;DHT22;28803;52.308;19.096;2023-04-24T02:07:47;11.90;1.00
43185;DHT22;28803;52.308;19.096;2023-04-24T02:10:14;11.90;1.00
43185;DHT22;28803;52.308;19.096;2023-04-24T02:12:41;12.00;99.90
43185;DHT22;28803;52.308;19.096;2023-04-24T02:15:08;12.00;99.90
43185;DHT22;28803;52.308;19.096;2023-04-24T02:17:36;12.00;99.90
43185;DHT22;28803;52.308;19.096;2023-04-24T02:20:04;12.10;99.90
43185;DHT22;28803;52.308;19.096;2023-04-24T02:22:32;12.10;99.90
43185;DHT22;28803;52.308;19.096;2023-04-24T02:24:59;12.20;99.90
43185;DHT22;28803;52.308;19.096;2023-04-24T02:27:26;12.30;99.90
43185;DHT22;28803;52.308;19.096;2023-04-24T02:29:53;12.30;99.90
43185;DHT22;28803;52.308;19.096;2023-04-24T02:32:21;12.40;76.10
43185;DHT22;28803;52.308;19.096;2023-04-24T02:34:48;12.40;1.00
43185;DHT22;28803;52.308;19.096;2023-04-24T02:37:15;12.50;1.00
43185;DHT22;28803;52.308;19.096;2023-04-24T02:39:42;12.50;99.90
43185;DHT22;28803;52.308;19.096;2023-04-24T02:42:10;12.50;99.90
43185;DHT22;28803;52.308;19.096;2023-04-24T02:44:37;12.50;99.90
43185;DHT22;28803;52.308;19.096;2023-04-24T02:47:04;12.40;56.10
43185;DHT22;28803;52.308;19.096;2023-04-24T02:49:31;12.40;46.60
43185;DHT22;28803;52.308;19.096;2023-04-24T02:51:59;12.40;1.00
43185;DHT22;28803;52.308;19.096;2023-04-24T02:54:26;12.40;1.00
43185;DHT22;28803;52.308;19.096;2023-04-24T02:56:53;12.30;1.00
43185;DHT22;28803;52.308;19.096;2023-04-24T02:59:20;12.30;1.00
43185;DHT22;28803;52.308;19.096;2023-04-24T03:01:48;12.20;96.90
43185;DHT22;28803;52.308;19.096;2023-04-24T03:04:15;12.20;99.90
43185;DHT22;28803;52.308;19.096;2023-04-24T03:06:43;12.10;99.90
43185;DHT22;28803;52.308;19.096;2023-04-24T03:09:10;12.10;99.90
43185;DHT22;28803;52.308;19.096;2023-04-24T03:11:37;12.10;99.90
43185;DHT22;28803;52.308;19.096;2023-04-24T03:14:05;12.10;1.00
43185;DHT22;28803;52.308;19.096;2023-04-24T03:16:32;12.00;1.00
43185;DHT22;28803;52.308;19.096;2023-04-24T03:18:59;12.00;1.00
43185;DHT22;28803;52.308;19.096;2023-04-24T03:21:27;12.00;1.00
43185;DHT22;28803;52.308;19.096;2023-04-24T03:23:55;12.00;21.50
43185;DHT22;28803;52.308;19.096;2023-04-24T03:26:22;12.00;60.70
43185;DHT22;28803;52.308;19.096;2023-04-24T03:28:49;11.90;99.90
43185;DHT22;28803;52.308;19.096;2023-04-24T03:31:16;12.00;99.90
43185;DHT22;28803;52.308;19.096;2023-04-24T03:33:44;11.90;99.90
43185;DHT22;28803;52.308;19.096;2023-04-24T03:36:11;11.90;99.90
43185;DHT22;28803;52.308;19.096;2023-04-24T03:38:38;11.90;99.90
43185;DHT22;28803;52.308;19.096;2023-04-24T03:41:05;11.80;99.90
43185;DHT22;28803;52.308;19.096;2023-04-24T03:43:32;11.80;99.90
43185;DHT22;28803;52.308;19.096;2023-04-24T03:46:01;11.80;99.90
43185;DHT22;28803;52.308;19.096;2023-04-24T03:48:29;11.90;1.00
43185;DHT22;28803;52.308;19.096;2023-04-24T03:50:56;11.90;1.00
43185;DHT22;28803;52.308;19.096;2023-04-24T03:53:23;11.90;1.00
43185;DHT22;28803;52.308;19.096;2023-04-24T03:55:50;11.90;1.00
43185;DHT22;28803;52.308;19.096;2023-04-24T03:58:17;12.00;1.00
43185;DHT22;28803;52.308;19.096;2023-04-24T04:00:46;12.00;1.00
43185;DHT22;28803;52.308;19.096;2023-04-24T04:03:14;12.10;1.00
43185;DHT22;28803;52.308;19.096;2023-04-24T04:05:42;12.10;99.90
43185;DHT22;28803;52.308;19.096;2023-04-24T04:08:09;12.10;99.90
43185;DHT22;28803;52.308;19.096;2023-04-24T04:10:37;12.00;99.90
43185;DHT22;28803;52.308;19.096;2023-04-24T04:13:04;12.00;1.00
43185;DHT22;28803;52.308;19.096;2023-04-24T04:15:31;12.10;1.00
43185;DHT22;28803;52.308;19.096;2023-04-24T04:17:58;12.10;1.00
43185;DHT22;28803;52.308;19.096;2023-04-24T04:20:25;12.20;1.00
43185;DHT22;28803;52.308;19.096;2023-04-24T04:22:52;12.20;1.00
43185;DHT22;28803;52.308;19.096;2023-04-24T04:25:20;12.20;1.00
43185;DHT22;28803;52.308;19.096;2023-04-24T04:27:47;12.30;1.00
43185;DHT22;28803;52.308;19.096;2023-04-24T04:30:18;12.40;1.00
43185;DHT22;28803;52.308;19.096;2023-04-24T04:32:45;12.50;1.00
43185;DHT22;28803;52.308;19.096;2023-04-24T04:35:12;12.60;1.00
43185;DHT22;28803;52.308;19.096;2023-04-24T04:37:39;12.70;1.00
43185;DHT22;28803;52.308;19.096;2023-04-24T04:40:07;12.80;99.90
43185;DHT22;28803;52.308;19.096;2023-04-24T04:42:38;13.00;99.90
43185;DHT22;28803;52.308;19.096;2023-04-24T04:45:08;13.10;99.90
43185;DHT22;28803;52.308;19.096;2023-04-24T04:47:38;13.20;99.90
43185;DHT22;28803;52.308;19.096;2023-04-24T04:50:07;13.40;99.90
43185;DHT22;28803;52.308;19.096;2023-04-24T04:52:34;13.60;3.50
43185;DHT22;28803;52.308;19.096;2023-04-24T04:55:02;13.80;27.60
43185;DHT22;28803;52.308;19.096;2023-04-24T04:57:30;14.00;99.90
43185;DHT22;28803;52.308;19.096;2023-04-24T04:59:58;14.30;99.90
43185;DHT22;28803;52.308;19.096;2023-04-24T05:02:25;14.40;99.90
43185;DHT22;28803;52.308;19.096;2023-04-24T05:04:52;14.60;99.90
43185;DHT22;28803;52.308;19.096;2023-04-24T05:07:19;14.70;99.90
43185;DHT22;28803;52.308;19.096;2023-04-24T05:09:47;14.90;99.90
43185;DHT22;28803;52.308;19.096;2023-04-24T05:12:14;15.00;99.90
43185;DHT22;28803;52.308;19.096;2023-04-24T05:14:41;15.00;99.90
43185;DHT22;28803;52.308;19.096;2023-04-24T05:17:09;15.00;99.90
43185;DHT22;28803;52.308;19.096;2023-04-24T05:19:37;15.10;99.90
43185;DHT22;28803;52.308;19.096;2023-04-24T05:22:05;15.20;99.90
43185;DHT22;28803;52.308;19.096;2023-04-24T05:24:34;15.20;99.90
43185;DHT22;28803;52.308;19.096;2023-04-24T05:27:02;15.30;99.90
43185;DHT22;28803;52.308;19.096;2023-04-24T05:29:30;15.30;99.90
43185;DHT22;28803;52.308;19.096;2023-04-24T05:32:00;15.40;99.90
43185;DHT22;28803;52.308;19.096;2023-04-24T05:34:28;15.40;99.90
43185;DHT22;28803;52.308;19.096;2023-04-24T05:36:55;15.40;99.90
43185;DHT22;28803;52.308;19.096;2023-04-24T05:39:22;15.40;99.90
43185;DHT22;28803;52.308;19.096;2023-04-24T05:41:51;15.50;99.90
43185;DHT22;28803;52.308;19.096;2023-04-24T05:44:19;15.50;99.90
43185;DHT22;28803;52.308;19.096;2023-04-24T05:46:46;15.50;99.90
43185;DHT22;28803;52.308;19.096;2023-04-24T05:49:15;15.60;99.90
43185;DHT22;28803;52.308;19.096;2023-04-24T05:51:42;15.70;99.90
43185;DHT22;28803;52.308;19.096;2023-04-24T05:54:10;15.80;99.90
43185;DHT22;28803;52.308;19.096;2023-04-24T05:56:39;15.80;99.90
43185;DHT22;28803;52.308;19.096;2023-04-24T05:59:09;15.90;99.90
43185;DHT22;28803;52.308;19.096;2023-04-24T06:01:36;15.90;99.90
43185;DHT22;28803;52.308;19.096;2023-04-24T06:04:04;16.00;99.90
43185;DHT22;28803;52.308;19.096;2023-04-24T06:06:31;16.00;99.90
43185;DHT22;28803;52.308;19.096;2023-04-24T06:08:59;16.10;99.90
43185;DHT22;28803;52.308;19.096;2023-04-24T06:11:26;16.20;99.90
43185;DHT22;28803;52.308;19.096;2023-04-24T06:13:54;16.40;99.90
43185;DHT22;28803;52.308;19.096;2023-04-24T06:16:21;16.50;99.90
43185;DHT22;28803;52.308;19.096;2023-04-24T06:18:48;16.80;99.90
43185;DHT22;28803;52.308;19.096;2023-04-24T06:21:17;17.10;99.90
43185;DHT22;28803;52.308;19.096;2023-04-24T06:23:45;17.30;99.90
43185;DHT22;28803;52.308;19.096;2023-04-24T06:26:13;17.70;99.90
43185;DHT22;28803;52.308;19.096;2023-04-24T06:28:40;18.00;99.90
43185;DHT22;28803;52.308;19.096;2023-04-24T06:31:07;18.30;99.90
43185;DHT22;28803;52.308;19.096;2023-04-24T06:33:34;18.60;99.90
43185;DHT22;28803;52.308;19.096;2023-04-24T06:36:02;18.80;99.90
43185;DHT22;28803;52.308;19.096;2023-04-24T06:38:30;19.00;99.90
43185;DHT22;28803;52.308;19.096;2023-04-24T06:40:58;19.10;99.90
43185;DHT22;28803;52.308;19.096;2023-04-24T06:43:25;19.30;99.20
43185;DHT22;28803;52.308;19.096;2023-04-24T06:45:52;19.50;99.20
43185;DHT22;28803;52.308;19.096;2023-04-24T06:48:20;19.50;97.90
43185;DHT22;28803;52.308;19.096;2023-04-24T06:50:47;19.70;98.10
43185;DHT22;28803;52.308;19.096;2023-04-24T06:53:14;20.00;97.90
43185;DHT22;28803;52.308;19.096;2023-04-24T06:55:42;20.40;96.00
43185;DHT22;28803;52.308;19.096;2023-04-24T06:58:10;20.70;94.40
43185;DHT22;28803;52.308;19.096;2023-04-24T07:00:38;20.90;93.90
43185;DHT22;28803;52.308;19.096;2023-04-24T07:03:05;21.00;93.40
43185;DHT22;28803;52.308;19.096;2023-04-24T07:05:33;21.00;92.50
43185;DHT22;28803;52.308;19.096;2023-04-24T07:08:04;21.10;93.00
43185;DHT22;28803;52.308;19.096;2023-04-24T07:10:31;21.30;92.00
43185;DHT22;28803;52.308;19.096;2023-04-24T07:12:59;21.30;91.30
43185;DHT22;28803;52.308;19.096;2023-04-24T07:15:26;21.20;88.80
43185;DHT22;28803;52.308;19.096;2023-04-24T07:17:53;21.50;86.50
43185;DHT22;28803;52.308;19.096;2023-04-24T07:20:21;21.50;87.40
43185;DHT22;28803;52.308;19.096;2023-04-24T07:22:48;22.20;88.40
43185;DHT22;28803;52.308;19.096;2023-04-24T07:25:16;23.90;81.40
43185;DHT22;28803;52.308;19.096;2023-04-24T07:27:43;25.60;75.40
43185;DHT22;28803;52.308;19.096;2023-04-24T07:30:11;27.40;68.00
43185;DHT22;28803;52.308;19.096;2023-04-24T07:32:38;28.90;64.00
43185;DHT22;28803;52.308;19.096;2023-04-24T07:35:05;30.00;58.70
43185;DHT22;28803;52.308;19.096;2023-04-24T07:37:33;30.70;56.00
43185;DHT22;28803;52.308;19.096;2023-04-24T07:40:00;31.40;54.20
43185;DHT22;28803;52.308;19.096;2023-04-24T07:42:28;32.00;52.60
43185;DHT22;28803;52.308;19.096;2023-04-24T07:44:57;31.50;53.10
43185;DHT22;28803;52.308;19.096;2023-04-24T07:47:24;30.80;52.80
43185;DHT22;28803;52.308;19.096;2023-04-24T07:49:52;30.20;53.50
43185;DHT22;28803;52.308;19.096;2023-04-24T07:52:19;29.60;53.60
43185;DHT22;28803;52.308;19.096;2023-04-24T07:54:46;29.60;53.00
43185;DHT22;28803;52.308;19.096;2023-04-24T07:57:14;29.80;53.10
43185;DHT22;28803;52.308;19.096;2023-04-24T07:59:41;30.40;51.40
43185;DHT22;28803;52.308;19.096;2023-04-24T08:02:09;30.40;52.60
43185;DHT22;28803;52.308;19.096;2023-04-24T08:04:36;30.20;50.60
43185;DHT22;28803;52.308;19.096;2023-04-24T08:07:04;29.70;51.20
43185;DHT22;28803;52.308;19.096;2023-04-24T08:09:31;29.60;51.80
43185;DHT22;28803;52.308;19.096;2023-04-24T08:11:58;29.10;52.60
43185;DHT22;28803;52.308;19.096;2023-04-24T08:14:25;29.20;53.50
43185;DHT22;28803;52.308;19.096;2023-04-24T08:16:54;31.20;48.90
43185;DHT22;28803;52.308;19.096;2023-04-24T08:19:22;31.20;49.40
43185;DHT22;28803;52.308;19.096;2023-04-24T08:21:50;33.70;46.00
43185;DHT22;28803;52.308;19.096;2023-04-24T08:24:17;33.50;46.40
43185;DHT22;28803;52.308;19.096;2023-04-24T08:26:44;34.60;45.40
43185;DHT22;28803;52.308;19.096;2023-04-24T08:29:11;33.40;46.70
43185;DHT22;28803;52.308;19.096;2023-04-24T08:31:39;33.20;45.60
43185;DHT22;28803;52.308;19.096;2023-04-24T08:34:06;33.20;45.80
43185;DHT22;28803;52.308;19.096;2023-04-24T08:36:33;33.00;45.00
43185;DHT22;28803;52.308;19.096;2023-04-24T08:39:12;32.70;46.00
43185;DHT22;28803;52.308;19.096;2023-04-24T08:41:42;31.80;46.40
43185;DHT22;28803;52.308;19.096;2023-04-24T08:44:12;30.40;46.00
43185;DHT22;28803;52.308;19.096;2023-04-24T08:46:43;28.70;46.40
43185;DHT22;28803;52.308;19.096;2023-04-24T08:49:14;27.60;52.10
43185;DHT22;28803;52.308;19.096;2023-04-24T08:51:44;26.70;51.30
43185;DHT22;28803;52.308;19.096;2023-04-24T08:54:12;26.30;53.00
43185;DHT22;28803;52.308;19.096;2023-04-24T08:56:43;26.00;52.60
43185;DHT22;28803;52.308;19.096;2023-04-24T08:59:12;26.80;52.20
43185;DHT22;28803;52.308;19.096;2023-04-24T09:01:40;28.50;50.30
43185;DHT22;28803;52.308;19.096;2023-04-24T09:04:09;30.70;46.40
43185;DHT22;28803;52.308;19.096;2023-04-24T09:06:38;32.80;44.30
43185;DHT22;28803;52.308;19.096;2023-04-24T09:09:06;34.30;44.20
43185;DHT22;28803;52.308;19.096;2023-04-24T09:11:36;35.80;42.20
43185;DHT22;28803;52.308;19.096;2023-04-24T09:14:03;36.60;40.90
43185;DHT22;28803;52.308;19.096;2023-04-24T09:16:31;36.10;40.70
43185;DHT22;28803;52.308;19.096;2023-04-24T09:19:02;36.50;40.50
43185;DHT22;28803;52.308;19.096;2023-04-24T09:21:35;35.90;41.90
43185;DHT22;28803;52.308;19.096;2023-04-24T09:24:07;35.30;40.40
43185;DHT22;28803;52.308;19.096;2023-04-24T09:26:36;34.60;41.10
43185;DHT22;28803;52.308;19.096;2023-04-24T09:29:04;34.20;42.80
43185;DHT22;28803;52.308;19.096;2023-04-24T09:31:32;35.20;42.30
43185;DHT22;28803;52.308;19.096;2023-04-24T09:34:01;36.40;41.10
43185;DHT22;28803;52.308;19.096;2023-04-24T09:36:42;37.40;41.00
43185;DHT22;28803;52.308;19.096;2023-04-24T09:39:12;37.40;39.00
43185;DHT22;28803;52.308;19.096;2023-04-24T09:41:50;37.30;39.70
43185;DHT22;28803;52.308;19.096;2023-04-24T09:44:19;38.00;38.60
43185;DHT22;28803;52.308;19.096;2023-04-24T09:46:55;39.30;38.40
43185;DHT22;28803;52.308;19.096;2023-04-24T09:49:31;39.20;39.00
43185;DHT22;28803;52.308;19.096;2023-04-24T09:52:08;37.70;38.20
43185;DHT22;28803;52.308;19.096;2023-04-24T09:54:36;37.30;38.50
43185;DHT22;28803;52.308;19.096;2023-04-24T09:57:09;31.90;42.80
43185;DHT22;28803;52.308;19.096;2023-04-24T09:59:42;31.40;43.50
43185;DHT22;28803;52.308;19.096;2023-04-24T10:02:20;29.40;47.60
43185;DHT22;28803;52.308;19.096;2023-04-24T10:04:55;27.90;50.70
43185;DHT22;28803;52.308;19.096;2023-04-24T10:07:28;26.80;50.20
43185;DHT22;28803;52.308;19.096;2023-04-24T10:09:55;25.90;52.90
43185;DHT22;28803;52.308;19.096;2023-04-24T10:12:23;25.30;54.70
43185;DHT22;28803;52.308;19.096;2023-04-24T10:14:52;25.00;55.10
43185;DHT22;28803;52.308;19.096;2023-04-24T10:17:21;24.60;54.80
43185;DHT22;28803;52.308;19.096;2023-04-24T10:19:49;24.50;53.50
43185;DHT22;28803;52.308;19.096;2023-04-24T10:22:17;24.30;55.20
43185;DHT22;28803;52.308;19.096;2023-04-24T10:24:45;24.30;55.00
43185;DHT22;28803;52.308;19.096;2023-04-24T10:27:15;24.00;54.40
43185;DHT22;28803;52.308;19.096;2023-04-24T10:29:43;23.90;56.30
43185;DHT22;28803;52.308;19.096;2023-04-24T10:32:12;23.90;57.80
43185;DHT22;28803;52.308;19.096;2023-04-24T10:34:39;23.80;55.90
43185;DHT22;28803;52.308;19.096;2023-04-24T10:39:34;23.70;55.10
43185;DHT22;28803;52.308;19.096;2023-04-24T10:42:13;23.60;54.50
43185;DHT22;28803;52.308;19.096;2023-04-24T10:44:40;23.60;55.30
43185;DHT22;28803;52.308;19.096;2023-04-24T10:47:13;23.50;56.00
43185;DHT22;28803;52.308;19.096;2023-04-24T10:49:41;23.70;56.60
43185;DHT22;28803;52.308;19.096;2023-04-24T10:52:09;23.70;56.50
43185;DHT22;28803;52.308;19.096;2023-04-24T10:54:45;23.80;57.20
43185;DHT22;28803;52.308;19.096;2023-04-24T11:00:13;24.00;57.40
43185;DHT22;28803;52.308;19.096;2023-04-24T11:02:41;24.00;57.60
43185;DHT22;28803;52.308;19.096;2023-04-24T11:05:16;24.30;58.70
43185;DHT22;28803;52.308;19.096;2023-04-24T11:08:21;24.20;56.50
43185;DHT22;28803;52.308;19.096;2023-04-24T11:21:43;24.30;59.50
43185;DHT22;28803;52.308;19.096;2023-04-24T11:24:37;24.30;59.70
43185;DHT22;28803;52.308;19.096;2023-04-24T11:27:09;24.00;59.80
43185;DHT22;28803;52.308;19.096;2023-04-24T11:35:00;23.90;59.00
43185;DHT22;28803;52.308;19.096;2023-04-24T11:37:33;23.80;60.50
43185;DHT22;28803;52.308;19.096;2023-04-24T11:40:01;23.90;60.70
43185;DHT22;28803;52.308;19.096;2023-04-24T11:42:37;24.00;61.10
43185;DHT22;28803;52.308;19.096;2023-04-24T11:47:37;24.30;59.20
43185;DHT22;28803;52.308;19.096;2023-04-24T11:50:10;24.30;58.60
43185;DHT22;28803;52.308;19.096;2023-04-24T11:52:40;24.60;61.10
43185;DHT22;28803;52.308;19.096;2023-04-24T11:57:55;24.90;58.90
43185;DHT22;28803;52.308;19.096;2023-04-24T12:00:26;25.00;58.10
43185;DHT22;28803;52.308;19.096;2023-04-24T12:03:05;25.00;59.40
43185;DHT22;28803;52.308;19.096;2023-04-24T12:05:33;25.10;58.50
43185;DHT22;28803;52.308;19.096;2023-04-24T12:08:01;25.30;57.60
43185;DHT22;28803;52.308;19.096;2023-04-24T12:10:30;25.40;57.60
43185;DHT22;28803;52.308;19.096;2023-04-24T12:12:58;25.60;57.20
43185;DHT22;28803;52.308;19.096;2023-04-24T12:15:27;25.70;58.60
43185;DHT22;28803;52.308;19.096;2023-04-24T12:17:55;25.70;57.70
43185;DHT22;28803;52.308;19.096;2023-04-24T12:20:29;25.70;60.30
43185;DHT22;28803;52.308;19.096;2023-04-24T12:22:58;25.60;57.00
43185;DHT22;28803;52.308;19.096;2023-04-24T12:25:28;25.50;57.00
43185;DHT22;28803;52.308;19.096;2023-04-24T12:28:09;25.40;58.10
43185;DHT22;28803;52.308;19.096;2023-04-24T12:30:46;25.50;59.30
43185;DHT22;28803;52.308;19.096;2023-04-24T12:33:19;25.30;58.80
43185;DHT22;28803;52.308;19.096;2023-04-24T12:35:48;25.00;60.10
43185;DHT22;28803;52.308;19.096;2023-04-24T12:38:22;24.70;59.20
43185;DHT22;28803;52.308;19.096;2023-04-24T12:41:02;24.70;59.20
43185;DHT22;28803;52.308;19.096;2023-04-24T12:43:29;24.50;60.20
43185;DHT22;28803;52.308;19.096;2023-04-24T12:45:57;24.40;62.10
43185;DHT22;28803;52.308;19.096;2023-04-24T12:48:27;24.40;59.90
43185;DHT22;28803;52.308;19.096;2023-04-24T12:50:57;24.40;59.40
43185;DHT22;28803;52.308;19.096;2023-04-24T12:53:28;24.50;60.70
43185;DHT22;28803;52.308;19.096;2023-04-24T12:55:56;24.60;60.60
43185;DHT22;28803;52.308;19.096;2023-04-24T12:58:24;24.70;60.40
43185;DHT22;28803;52.308;19.096;2023-04-24T13:00:51;24.80;59.80
43185;DHT22;28803;52.308;19.096;2023-04-24T13:03:19;24.90;59.60
43185;DHT22;28803;52.308;19.096;2023-04-24T13:05:46;24.90;58.00
43185;DHT22;28803;52.308;19.096;2023-04-24T13:08:14;25.00;58.40
43185;DHT22;28803;52.308;19.096;2023-04-24T13:10:41;25.00;58.80
43185;DHT22;28803;52.308;19.096;2023-04-24T13:13:09;24.80;58.50
43185;DHT22;28803;52.308;19.096;2023-04-24T13:15:36;24.80;61.50
43185;DHT22;28803;52.308;19.096;2023-04-24T13:18:03;24.70;58.10
43185;DHT22;28803;52.308;19.096;2023-04-24T13:20:31;24.80;59.30
43185;DHT22;28803;52.308;19.096;2023-04-24T13:22:59;24.90;59.20
43185;DHT22;28803;52.308;19.096;2023-04-24T13:25:27;24.90;59.50
43185;DHT22;28803;52.308;19.096;2023-04-24T13:27:54;24.70;59.40
43185;DHT22;28803;52.308;19.096;2023-04-24T13:30:22;24.80;58.10
43185;DHT22;28803;52.308;19.096;2023-04-24T13:32:49;24.80;59.70
43185;DHT22;28803;52.308;19.096;2023-04-24T13:35:17;24.80;61.00
43185;DHT22;28803;52.308;19.096;2023-04-24T13:37:44;24.60;60.80
43185;DHT22;28803;52.308;19.096;2023-04-24T13:40:11;24.40;60.80
43185;DHT22;28803;52.308;19.096;2023-04-24T13:42:38;24.30;59.60
43185;DHT22;28803;52.308;19.096;2023-04-24T13:45:06;24.10;59.90
43185;DHT22;28803;52.308;19.096;2023-04-24T13:47:50;23.80;60.10
43185;DHT22;28803;52.308;19.096;2023-04-24T13:50:19;23.50;62.00
43185;DHT22;28803;52.308;19.096;2023-04-24T13:52:46;23.40;62.30
43185;DHT22;28803;52.308;19.096;2023-04-24T13:55:14;23.20;63.70
43185;DHT22;28803;52.308;19.096;2023-04-24T13:57:41;23.20;62.30
43185;DHT22;28803;52.308;19.096;2023-04-24T14:00:09;23.10;64.10
43185;DHT22;28803;52.308;19.096;2023-04-24T14:02:38;22.90;64.30
43185;DHT22;28803;52.308;19.096;2023-04-24T14:05:05;22.90;64.60
43185;DHT22;28803;52.308;19.096;2023-04-24T14:07:33;22.80;62.40
43185;DHT22;28803;52.308;19.096;2023-04-24T14:10:01;22.80;64.80
43185;DHT22;28803;52.308;19.096;2023-04-24T14:12:28;22.80;65.30
43185;DHT22;28803;52.308;19.096;2023-04-24T14:14:55;22.60;64.40
43185;DHT22;28803;52.308;19.096;2023-04-24T14:17:22;22.60;64.60
43185;DHT22;28803;52.308;19.096;2023-04-24T14:19:50;23.50;63.50
43185;DHT22;28803;52.308;19.096;2023-04-24T14:22:18;25.30;60.10
43185;DHT22;28803;52.308;19.096;2023-04-24T14:24:46;26.90;58.60
43185;DHT22;28803;52.308;19.096;2023-04-24T14:27:13;28.20;54.80
43185;DHT22;28803;52.308;19.096;2023-04-24T14:29:41;29.00;54.20
43185;DHT22;28803;52.308;19.096;2023-04-24T14:32:08;29.80;53.40
43185;DHT22;28803;52.308;19.096;2023-04-24T14:34:36;29.80;53.40
43185;DHT22;28803;52.308;19.096;2023-04-24T14:37:03;29.70;51.80
43185;DHT22;28803;52.308;19.096;2023-04-24T14:39:30;29.70;52.40
43185;DHT22;28803;52.308;19.096;2023-04-24T14:41:57;29.40;53.10
43185;DHT22;28803;52.308;19.096;2023-04-24T14:44:25;29.40;53.10
43185;DHT22;28803;52.308;19.096;2023-04-24T14:46:53;29.50;52.90
43185;DHT22;28803;52.308;19.096;2023-04-24T14:49:20;29.50;53.40
43185;DHT22;28803;52.308;19.096;2023-04-24T14:51:47;29.50;53.30
43185;DHT22;28803;52.308;19.096;2023-04-24T14:54:14;29.50;52.90
43185;DHT22;28803;52.308;19.096;2023-04-24T14:56:41;28.60;52.50
43185;DHT22;28803;52.308;19.096;2023-04-24T14:59:11;27.90;54.30
43185;DHT22;28803;52.308;19.096;2023-04-24T15:01:37;26.70;54.80
43185;DHT22;28803;52.308;19.096;2023-04-24T15:04:05;25.90;58.50
43185;DHT22;28803;52.308;19.096;2023-04-24T15:06:33;25.00;59.40
43185;DHT22;28803;52.308;19.096;2023-04-24T15:09:00;24.30;60.40
43185;DHT22;28803;52.308;19.096;2023-04-24T15:11:27;23.80;61.40
43185;DHT22;28803;52.308;19.096;2023-04-24T15:13:56;23.30;61.80
43185;DHT22;28803;52.308;19.096;2023-04-24T15:16:24;23.00;62.80
43185;DHT22;28803;52.308;19.096;2023-04-24T15:18:52;22.80;62.00
43185;DHT22;28803;52.308;19.096;2023-04-24T15:21:19;22.50;62.90
43185;DHT22;28803;52.308;19.096;2023-04-24T15:23:46;22.50;63.40
43185;DHT22;28803;52.308;19.096;2023-04-24T15:26:14;22.40;63.90
43185;DHT22;28803;52.308;19.096;2023-04-24T15:28:41;21.80;65.00
43185;DHT22;28803;52.308;19.096;2023-04-24T15:31:08;21.10;65.70
43185;DHT22;28803;52.308;19.096;2023-04-24T15:33:36;20.40;67.90
43185;DHT22;28803;52.308;19.096;2023-04-24T15:36:03;19.90;67.30
43185;DHT22;28803;52.308;19.096;2023-04-24T15:38:30;19.40;67.60
43185;DHT22;28803;52.308;19.096;2023-04-24T15:40:58;18.90;65.50
43185;DHT22;28803;52.308;19.096;2023-04-24T15:43:25;18.60;66.90
43185;DHT22;28803;52.308;19.096;2023-04-24T15:45:52;18.30;68.40
43185;DHT22;28803;52.308;19.096;2023-04-24T15:48:19;17.90;70.50
43185;DHT22;28803;52.308;19.096;2023-04-24T15:50:46;17.70;72.10
43185;DHT22;28803;52.308;19.096;2023-04-24T15:53:14;17.60;72.80